Time;durP1;ratioP1;P1;durP2;ratioP2;P2;SDS_P1;SDS_P2;PMS_P1;PMS_P2;Temp;Humidity;BMP_temperature;BMP_pressure;BME280_temperature;BME280_humidity;BME280_pressure;Samples;Min_cycle;Max_cycle;Signal;HPM_P1;HPM_P2
2023/02/08 00:01:51;;;;;;;24.42;13.57;;;-0.30;99.90;;;;;;4977925;28;20023;-75
2023/02/08 00:04:17;;;;;;;25.40;13.95;;;-0.30;99.90;;;;;;4976867;28;20045;-74
2023/02/08 00:06:43;;;;;;;23.38;13.02;;;-0.30;99.90;;;;;;4955258;28;20082;-74
2023/02/08 00:09:09;;;;;;;25.80;13.63;;;-0.30;99.90;;;;;;4944839;28;20443;-74
2023/02/08 00:11:35;;;;;;;30.17;13.93;;;-0.40;99.90;;;;;;4976824;28;20967;-75
2023/02/08 00:14:01;;;;;;;21.92;13.45;;;-0.40;99.90;;;;;;4963552;28;20054;-74
2023/02/08 00:16:27;;;;;;;21.70;12.30;;;-0.40;99.90;;;;;;4976678;28;20042;-75
2023/02/08 00:18:53;;;;;;;27.73;15.00;;;-0.40;99.90;;;;;;4961945;28;20476;-74
2023/02/08 00:21:18;;;;;;;24.02;13.15;;;-0.40;99.90;;;;;;4960587;28;20035;-74
2023/02/08 00:23:45;;;;;;;28.20;13.85;;;-0.40;99.90;;;;;;4976047;28;20106;-74
2023/02/08 00:26:11;;;;;;;27.10;13.93;;;-0.40;99.90;;;;;;4956715;28;20406;-74
2023/02/08 00:28:37;;;;;;;26.25;14.05;;;-0.40;99.90;;;;;;4976040;28;20034;-74
2023/02/08 00:31:03;;;;;;;26.08;13.98;;;-0.40;99.90;;;;;;4967009;28;20118;-74
2023/02/08 00:33:29;;;;;;;25.60;13.68;;;-0.40;99.90;;;;;;4971335;28;20124;-74
2023/02/08 00:36:00;;;;;;;24.77;13.20;;;-0.40;99.90;;;;;;4972028;28;20030;-76
2023/02/08 00:38:26;;;;;;;21.95;12.38;;;-0.40;99.90;;;;;;4971785;28;20026;-74
2023/02/08 00:40:53;;;;;;;25.40;12.75;;;-0.40;99.90;;;;;;4974156;28;20043;-76
2023/02/08 00:43:19;;;;;;;27.13;13.57;;;-0.40;99.90;;;;;;4979104;28;20042;-75
2023/02/08 00:45:44;;;;;;;25.27;13.70;;;-0.40;99.90;;;;;;4959994;28;20039;-74
2023/02/08 00:48:10;;;;;;;27.55;13.48;;;-0.40;99.90;;;;;;4985052;28;20037;-75
2023/02/08 00:50:36;;;;;;;26.13;13.48;;;-0.40;99.90;;;;;;4975155;28;20130;-74
2023/02/08 00:53:02;;;;;;;24.75;13.15;;;-0.40;99.90;;;;;;4970213;28;20130;-74
2023/02/08 00:55:28;;;;;;;26.52;13.30;;;-0.50;99.90;;;;;;4969378;28;20078;-74
2023/02/08 00:57:53;;;;;;;26.17;14.00;;;-0.50;99.90;;;;;;4959940;28;20189;-75
2023/02/08 01:00:19;;;;;;;23.98;12.73;;;-0.50;99.90;;;;;;4955674;28;20126;-75
2023/02/08 01:02:45;;;;;;;27.08;12.77;;;-0.50;99.90;;;;;;4973809;28;20113;-76
2023/02/08 01:05:11;;;;;;;24.63;12.90;;;-0.50;99.90;;;;;;4971038;28;20035;-73
2023/02/08 01:07:37;;;;;;;26.00;13.43;;;-0.50;99.90;;;;;;4976997;28;20042;-74
2023/02/08 01:10:11;;;;;;;23.33;12.88;;;-0.50;99.90;;;;;;4968743;28;20106;-75
2023/02/08 01:12:37;;;;;;;24.45;12.80;;;-0.60;99.90;;;;;;4960838;28;20489;-76
2023/02/08 01:15:04;;;;;;;25.17;13.10;;;-0.50;99.90;;;;;;4971220;28;20442;-74
2023/02/08 01:17:29;;;;;;;29.83;14.07;;;-0.50;99.90;;;;;;4967843;28;20034;-73
2023/02/08 01:19:55;;;;;;;28.42;13.48;;;-0.50;99.90;;;;;;4973623;28;20124;-76
2023/02/08 01:22:21;;;;;;;29.77;15.02;;;-0.60;99.90;;;;;;4958032;28;20126;-75
2023/02/08 01:24:46;;;;;;;30.58;14.55;;;-0.60;99.90;;;;;;4971229;28;20031;-74
2023/02/08 01:27:12;;;;;;;28.13;14.63;;;-0.60;99.90;;;;;;4968717;28;20089;-75
2023/02/08 01:29:38;;;;;;;25.33;13.95;;;-0.60;99.90;;;;;;4959917;28;20066;-73
2023/02/08 01:32:04;;;;;;;28.58;13.70;;;-0.60;99.90;;;;;;4979700;28;20031;-74
2023/02/08 01:34:30;;;;;;;27.55;13.90;;;-0.70;99.90;;;;;;4980477;28;20027;-75
2023/02/08 01:36:56;;;;;;;25.85;13.90;;;-0.70;99.90;;;;;;4975115;28;20383;-74
2023/02/08 01:39:22;;;;;;;26.95;14.75;;;-0.70;99.90;;;;;;4960502;28;20042;-73
2023/02/08 01:41:47;;;;;;;28.83;15.25;;;-0.70;99.90;;;;;;4969059;28;20570;-75
2023/02/08 01:44:13;;;;;;;26.33;13.57;;;-0.70;99.90;;;;;;4970585;28;20037;-75
2023/02/08 01:46:41;;;;;;;31.60;14.52;;;-0.70;99.90;;;;;;4942612;28;20027;-73
2023/02/08 01:49:11;;;;;;;30.27;14.75;;;-0.70;99.90;;;;;;4960029;28;20846;-73
2023/02/08 01:51:43;;;;;;;30.73;15.55;;;-0.70;99.90;;;;;;4953344;28;20528;-76
2023/02/08 01:54:11;;;;;;;26.63;14.23;;;-0.70;99.90;;;;;;4958636;28;20506;-74
2023/02/08 01:56:40;;;;;;;28.25;13.85;;;-0.70;99.90;;;;;;4966737;28;20026;-75
2023/02/08 01:59:11;;;;;;;28.65;14.85;;;-0.60;99.90;;;;;;4957321;28;20030;-74
2023/02/08 02:01:39;;;;;;;27.73;14.07;;;-0.70;99.90;;;;;;4964441;28;20030;-75
2023/02/08 02:04:07;;;;;;;29.52;15.48;;;-0.70;99.90;;;;;;4977185;28;20109;-75
2023/02/08 02:06:38;;;;;;;28.77;15.35;;;-0.70;99.90;;;;;;4938689;28;20034;-75
2023/02/08 02:09:23;;;;;;;30.90;14.77;;;-0.70;99.90;;;;;;4954468;28;20033;-75
2023/02/08 02:11:50;;;;;;;30.73;15.95;;;-0.70;99.90;;;;;;4957516;28;20031;-74
2023/02/08 02:14:16;;;;;;;32.60;16.90;;;-0.70;99.90;;;;;;4978724;28;20034;-76
2023/02/08 02:16:42;;;;;;;31.13;16.48;;;-0.70;99.90;;;;;;4955809;28;20050;-74
2023/02/08 02:19:21;;;;;;;31.70;16.83;;;-0.70;99.90;;;;;;4965887;28;20057;-74
2023/02/08 02:21:47;;;;;;;30.20;15.35;;;-0.70;99.90;;;;;;4961031;28;20026;-75
2023/02/08 02:24:26;;;;;;;32.42;16.25;;;-0.70;99.90;;;;;;4975449;28;20532;-74
2023/02/08 02:27:05;;;;;;;32.60;16.70;;;-0.70;99.90;;;;;;4970134;28;20355;-75
2023/02/08 02:29:30;;;;;;;27.42;14.43;;;-0.80;99.90;;;;;;4971618;28;20041;-76
2023/02/08 02:32:27;;;;;;;30.42;16.10;;;-0.80;99.90;;;;;;4986656;28;20305;-73
2023/02/08 02:35:05;;;;;;;30.83;16.48;;;-0.80;99.90;;;;;;4976277;28;20169;-75
2023/02/08 02:37:40;;;;;;;28.25;15.80;;;-0.80;99.90;;;;;;4961773;28;20445;-74
2023/02/08 02:40:32;;;;;;;32.45;16.48;;;-0.80;99.90;;;;;;4966751;28;20035;-74
2023/02/08 02:43:40;;;;;;;29.58;15.57;;;-0.80;99.90;;;;;;4952771;28;20042;-75
2023/02/08 02:46:15;;;;;;;28.85;15.57;;;-0.80;99.90;;;;;;4961011;28;20031;-76
2023/02/08 02:49:11;;;;;;;32.97;17.65;;;-0.80;99.90;;;;;;4972147;28;20142;-74
2023/02/08 02:52:06;;;;;;;32.35;16.50;;;-0.80;99.90;;;;;;4961104;28;21770;-76
2023/02/08 02:54:46;;;;;;;31.77;16.35;;;-0.90;99.90;;;;;;4973449;28;20390;-75
2023/02/08 02:57:16;;;;;;;34.77;17.77;;;-0.90;99.90;;;;;;4957273;28;20031;-75
2023/02/08 02:59:44;;;;;;;36.20;18.30;;;-0.90;99.90;;;;;;4944104;28;20026;-74
2023/02/08 03:02:10;;;;;;;35.25;17.63;;;-0.90;99.90;;;;;;4959791;28;20141;-74
2023/02/08 03:04:39;;;;;;;36.63;18.88;;;-0.90;99.90;;;;;;4973189;28;20556;-74
2023/02/08 03:07:18;;;;;;;37.83;17.45;;;-1.00;99.90;;;;;;4975418;28;20027;-75
2023/02/08 03:10:06;;;;;;;39.90;19.00;;;-1.00;99.90;;;;;;4974798;28;20022;-75
2023/02/08 03:12:57;;;;;;;35.38;18.17;;;-0.90;99.90;;;;;;4982873;28;20031;-75
2023/02/08 03:15:55;;;;;;;37.13;17.25;;;-1.00;99.90;;;;;;4964039;28;20034;-76
2023/02/08 03:18:21;;;;;;;39.25;18.73;;;-1.00;99.90;;;;;;4966080;28;20038;-75
2023/02/08 03:21:11;;;;;;;36.35;17.23;;;-0.90;99.90;;;;;;4967989;28;20023;-76
2023/02/08 03:23:48;;;;;;;37.35;19.00;;;-1.00;99.90;;;;;;4969469;28;20031;-74
2023/02/08 03:26:39;;;;;;;41.40;18.60;;;-1.00;99.90;;;;;;4969207;28;20398;-75
2023/02/08 03:29:17;;;;;;;41.15;19.02;;;-1.00;99.90;;;;;;4961212;28;20039;-74
2023/02/08 03:31:48;;;;;;;35.80;17.10;;;-1.00;99.90;;;;;;4970427;28;20019;-75
2023/02/08 03:34:33;;;;;;;35.38;18.42;;;-1.00;99.90;;;;;;4956394;28;20074;-79
2023/02/08 03:37:28;;;;;;;38.65;18.83;;;-1.00;99.90;;;;;;4971413;28;20038;-76
2023/02/08 03:40:01;;;;;;;36.00;18.45;;;-1.10;99.90;;;;;;4971940;28;20023;-74
2023/02/08 03:42:31;;;;;;;37.42;17.75;;;-1.10;99.90;;;;;;4968130;28;20041;-76
2023/02/08 03:45:01;;;;;;;35.42;18.83;;;-1.10;99.90;;;;;;4972945;28;20030;-74
2023/02/08 03:47:36;;;;;;;41.20;20.27;;;-1.10;99.90;;;;;;4974781;28;20038;-76
2023/02/08 03:50:06;;;;;;;40.15;17.85;;;-1.10;99.90;;;;;;4970100;28;20041;-75
2023/02/08 03:52:33;;;;;;;41.33;17.92;;;-1.10;99.90;;;;;;4978994;28;20034;-76
2023/02/08 03:55:13;;;;;;;38.17;18.60;;;-1.10;99.90;;;;;;4982653;28;20035;-76
2023/02/08 03:58:14;;;;;;;36.88;18.10;;;-1.10;99.90;;;;;;4974971;28;20029;-75
2023/02/08 04:00:47;;;;;;;35.50;17.35;;;-1.10;99.90;;;;;;4956853;28;20031;-75
2023/02/08 04:03:23;;;;;;;40.50;18.85;;;-1.10;99.90;;;;;;4956860;28;20039;-75
2023/02/08 04:05:48;;;;;;;40.92;20.42;;;-1.10;99.90;;;;;;4961310;28;20490;-75
2023/02/08 04:08:14;;;;;;;40.90;20.40;;;-1.10;99.90;;;;;;4972256;28;20037;-76
2023/02/08 04:10:40;;;;;;;35.92;18.27;;;-1.10;99.90;;;;;;4970278;28;20032;-74
2023/02/08 04:13:06;;;;;;;37.95;19.23;;;-1.10;99.90;;;;;;4977547;28;20038;-74
2023/02/08 04:15:32;;;;;;;40.92;19.20;;;-1.20;99.90;;;;;;4978273;28;20027;-77
2023/02/08 04:17:57;;;;;;;39.33;18.58;;;-1.20;99.90;;;;;;4971538;28;20197;-74
2023/02/08 04:20:23;;;;;;;39.72;19.20;;;-1.20;99.90;;;;;;4973525;28;20580;-74
2023/02/08 04:22:53;;;;;;;43.22;20.63;;;-1.20;99.90;;;;;;4957417;28;20037;-73
2023/02/08 04:25:18;;;;;;;35.50;17.35;;;-1.20;99.90;;;;;;4961047;28;20398;-74
2023/02/08 04:27:44;;;;;;;38.20;19.58;;;-1.20;99.90;;;;;;4973506;28;20034;-74
2023/02/08 04:30:10;;;;;;;38.67;19.48;;;-1.20;99.90;;;;;;4974670;28;20022;-74
2023/02/08 04:32:36;;;;;;;40.33;19.67;;;-1.20;99.90;;;;;;4954235;28;20038;-78
2023/02/08 04:35:02;;;;;;;40.03;19.90;;;-1.20;99.90;;;;;;4960827;28;20031;-74
2023/02/08 04:37:28;;;;;;;54.50;21.35;;;-1.20;99.90;;;;;;4953300;28;20034;-74
2023/02/08 04:39:53;;;;;;;42.58;20.17;;;-1.20;99.90;;;;;;4962126;28;20034;-73
2023/02/08 04:42:19;;;;;;;43.95;19.73;;;-1.20;99.90;;;;;;4981734;28;20398;-74
2023/02/08 04:44:45;;;;;;;48.65;20.83;;;-1.20;99.90;;;;;;4961575;28;20026;-74
2023/02/08 04:47:10;;;;;;;46.72;20.95;;;-1.20;99.90;;;;;;4971120;28;20632;-74
2023/02/08 04:49:36;;;;;;;41.05;20.20;;;-1.20;99.90;;;;;;4977421;28;20498;-74
2023/02/08 04:52:02;;;;;;;43.58;20.17;;;-1.20;99.90;;;;;;4956102;28;20038;-73
2023/02/08 04:54:28;;;;;;;46.65;21.88;;;-1.20;99.90;;;;;;4959364;28;20030;-74
2023/02/08 04:56:54;;;;;;;44.60;20.20;;;-1.20;99.90;;;;;;4960419;28;20025;-75
2023/02/08 04:59:20;;;;;;;42.33;19.60;;;-1.20;99.90;;;;;;4970372;28;20035;-75
2023/02/08 05:01:45;;;;;;;47.20;22.02;;;-1.20;99.90;;;;;;4950496;28;20058;-75
2023/02/08 05:04:11;;;;;;;46.90;23.17;;;-1.20;99.90;;;;;;4973614;28;20039;-75
2023/02/08 05:06:37;;;;;;;45.13;20.27;;;-1.20;99.90;;;;;;4976373;23;20047;-72
2023/02/08 05:09:05;;;;;;;48.30;21.52;;;-1.20;99.90;;;;;;4996443;28;20034;-71
2023/02/08 05:11:31;;;;;;;47.33;21.90;;;-1.20;99.90;;;;;;4978898;28;20046;-72
2023/02/08 05:13:57;;;;;;;44.17;21.83;;;-1.20;99.90;;;;;;4989491;28;20110;-72
2023/02/08 05:16:23;;;;;;;45.35;20.95;;;-1.20;99.90;;;;;;4992563;28;20505;-71
2023/02/08 05:18:48;;;;;;;48.97;22.02;;;-1.20;99.90;;;;;;4959165;28;20026;-72
2023/02/08 05:21:14;;;;;;;41.75;20.90;;;-1.20;99.90;;;;;;4996848;28;20046;-70
2023/02/08 05:23:40;;;;;;;46.47;21.70;;;-1.30;99.90;;;;;;4978151;28;20375;-72
2023/02/08 05:26:07;;;;;;;48.88;22.02;;;-1.30;99.90;;;;;;4997605;28;20030;-72
2023/02/08 05:28:33;;;;;;;46.95;21.17;;;-1.30;99.90;;;;;;4977938;28;20110;-72
2023/02/08 05:31:06;;;;;;;44.00;20.05;;;-1.30;99.90;;;;;;4975409;28;20117;-72
2023/02/08 05:33:32;;;;;;;48.50;20.95;;;-1.30;99.90;;;;;;4972261;28;20034;-72
2023/02/08 05:35:57;;;;;;;48.90;22.48;;;-1.30;99.90;;;;;;4957001;28;20045;-72
2023/02/08 05:38:23;;;;;;;46.85;20.58;;;-1.40;99.90;;;;;;4991786;28;20647;-71
2023/02/08 05:40:49;;;;;;;45.38;20.42;;;-1.40;99.90;;;;;;4974136;28;20102;-72
2023/02/08 05:43:15;;;;;;;40.67;19.08;;;-1.40;99.90;;;;;;4998106;28;20030;-70
2023/02/08 05:45:40;;;;;;;42.60;19.08;;;-1.40;99.90;;;;;;4982693;28;20026;-72
2023/02/08 05:48:06;;;;;;;44.53;20.80;;;-1.40;99.90;;;;;;4959489;28;20377;-71
2023/02/08 05:50:32;;;;;;;47.67;21.65;;;-1.50;99.90;;;;;;4988361;28;20038;-72
2023/02/08 05:52:58;;;;;;;42.10;19.90;;;-1.40;99.90;;;;;;4994708;28;20034;-70
2023/02/08 05:55:25;;;;;;;54.58;21.83;;;-1.40;99.90;;;;;;4989842;28;20508;-72
2023/02/08 05:57:50;;;;;;;45.55;20.15;;;-1.50;99.90;;;;;;4975964;28;20081;-71
2023/02/08 06:00:16;;;;;;;46.22;21.20;;;-1.50;99.90;;;;;;4970611;28;20176;-72
2023/02/08 06:02:42;;;;;;;46.35;21.85;;;-1.50;99.90;;;;;;4987723;28;20026;-72
2023/02/08 06:05:07;;;;;;;46.50;23.15;;;-1.50;99.90;;;;;;4975955;28;20045;-72
2023/02/08 06:07:33;;;;;;;54.38;23.63;;;-1.50;99.90;;;;;;4988866;28;20045;-71
2023/02/08 06:09:59;;;;;;;48.45;22.15;;;-1.50;99.90;;;;;;4993509;28;20026;-72
2023/02/08 06:12:25;;;;;;;46.33;22.20;;;-1.50;99.90;;;;;;4976054;28;20026;-72
2023/02/08 06:14:50;;;;;;;51.40;21.17;;;-1.50;99.90;;;;;;4989536;28;20038;-72
2023/02/08 06:17:16;;;;;;;45.47;21.40;;;-1.50;99.90;;;;;;4991938;28;20532;-72
2023/02/08 06:19:42;;;;;;;49.47;21.40;;;-1.50;99.90;;;;;;4991157;28;20050;-70
2023/02/08 06:22:07;;;;;;;45.42;20.15;;;-1.60;99.90;;;;;;4995503;28;20655;-71
2023/02/08 06:24:33;;;;;;;47.80;21.23;;;-1.60;99.90;;;;;;4975920;28;20041;-72
2023/02/08 06:26:59;;;;;;;46.42;21.45;;;-1.60;99.90;;;;;;4959138;28;20041;-71
2023/02/08 06:29:25;;;;;;;53.15;23.15;;;-1.60;99.90;;;;;;4988559;28;20027;-71
2023/02/08 06:31:50;;;;;;;45.47;21.13;;;-1.60;99.90;;;;;;4991987;28;20026;-71
2023/02/08 06:34:16;;;;;;;46.10;21.98;;;-1.60;99.90;;;;;;4993162;28;20113;-71
2023/02/08 06:36:44;;;;;;;46.08;20.33;;;-1.60;99.90;;;;;;4960760;28;20030;-74
2023/02/08 06:39:10;;;;;;;49.38;20.95;;;-1.60;99.90;;;;;;4974307;28;20041;-70
2023/02/08 06:41:35;;;;;;;48.65;22.00;;;-1.60;99.90;;;;;;4987946;28;20401;-73
2023/02/08 06:44:01;;;;;;;53.33;21.58;;;-1.60;99.90;;;;;;4988320;28;20057;-70
2023/02/08 06:46:27;;;;;;;48.72;20.27;;;-1.60;99.90;;;;;;4987058;28;20029;-71
2023/02/08 06:48:54;;;;;;;49.28;21.80;;;-1.60;99.90;;;;;;4958896;28;20041;-72
2023/02/08 06:51:20;;;;;;;45.75;21.33;;;-1.60;99.90;;;;;;4962665;28;20034;-71
2023/02/08 06:53:45;;;;;;;52.20;21.80;;;-1.60;99.90;;;;;;4983861;28;20037;-70
2023/02/08 06:56:11;;;;;;;51.60;21.67;;;-1.60;99.90;;;;;;4969173;28;20034;-71
2023/02/08 06:58:37;;;;;;;50.35;22.17;;;-1.60;99.90;;;;;;4985620;28;20057;-72
2023/02/08 07:01:03;;;;;;;52.60;22.08;;;-1.60;99.90;;;;;;4988976;28;20042;-71
2023/02/08 07:03:30;;;;;;;51.25;23.17;;;-1.60;99.90;;;;;;4990415;28;20124;-70
2023/02/08 07:05:55;;;;;;;47.55;21.70;;;-1.70;99.90;;;;;;4991154;28;20473;-69
2023/02/08 07:08:21;;;;;;;52.28;22.50;;;-1.60;99.90;;;;;;4991271;28;20117;-70
2023/02/08 07:10:48;;;;;;;48.67;21.40;;;-1.60;99.90;;;;;;4993078;28;20056;-70
2023/02/08 07:13:13;;;;;;;54.15;23.10;;;-1.60;99.90;;;;;;4963679;28;20561;-70
2023/02/08 07:15:39;;;;;;;53.13;23.55;;;-1.60;99.90;;;;;;4988105;28;20053;-71
2023/02/08 07:18:05;;;;;;;46.60;21.95;;;-1.60;99.90;;;;;;4972677;28;20033;-72
2023/02/08 07:20:30;;;;;;;57.55;23.35;;;-1.60;99.90;;;;;;4981612;28;20114;-71
2023/02/08 07:22:56;;;;;;;52.63;21.40;;;-1.60;99.90;;;;;;4972703;28;20576;-71
2023/02/08 07:25:22;;;;;;;54.30;23.33;;;-1.60;99.90;;;;;;4995474;28;20501;-71
2023/02/08 07:27:47;;;;;;;50.33;22.33;;;-1.60;99.90;;;;;;4993973;28;20518;-71
2023/02/08 07:30:13;;;;;;;40.58;18.52;;;-1.60;99.90;;;;;;4996397;28;20158;-70
2023/02/08 07:32:39;;;;;;;49.90;22.13;;;-0.80;99.90;;;;;;4995816;28;20030;-71
2023/02/08 07:35:05;;;;;;;52.28;22.92;;;-1.00;99.90;;;;;;4994849;28;20038;-71
2023/02/08 07:37:31;;;;;;;54.45;22.60;;;-1.20;99.90;;;;;;4966296;28;20257;-71
2023/02/08 07:39:57;;;;;;;47.22;21.77;;;-1.30;99.90;;;;;;4992340;28;20031;-71
2023/02/08 07:42:24;;;;;;;50.55;22.02;;;-1.30;99.90;;;;;;4977520;28;20041;-71
2023/02/08 07:44:50;;;;;;;51.42;22.50;;;-1.40;99.90;;;;;;4969779;28;20030;-73
2023/02/08 07:47:16;;;;;;;51.00;22.33;;;-1.40;99.90;;;;;;5009858;28;20045;-70
2023/02/08 07:49:42;;;;;;;48.28;23.20;;;-1.40;99.90;;;;;;4995239;28;20030;-71
2023/02/08 07:52:07;;;;;;;47.92;21.30;;;-1.40;99.90;;;;;;4990100;28;20039;-71
2023/02/08 07:54:33;;;;;;;48.95;21.13;;;-1.40;99.90;;;;;;4994361;28;20026;-71
2023/02/08 07:56:59;;;;;;;48.75;20.75;;;-1.40;99.90;;;;;;5001003;28;20026;-71
2023/02/08 07:59:25;;;;;;;47.75;20.75;;;-1.40;99.90;;;;;;4996396;28;20098;-71
2023/02/08 08:01:50;;;;;;;48.85;22.60;;;-1.30;99.90;;;;;;4961493;28;20022;-71
2023/02/08 08:04:18;;;;;;;53.63;23.40;;;-1.30;99.90;;;;;;4995968;28;20513;-71
2023/02/08 08:06:45;;;;;;;47.67;21.30;;;-1.30;99.90;;;;;;4965490;28;20117;-71
2023/02/08 08:09:11;;;;;;;52.47;22.55;;;-1.30;99.90;;;;;;4992841;28;20045;-73
2023/02/08 08:11:37;;;;;;;54.55;22.55;;;-1.30;99.90;;;;;;4997584;28;20624;-75
2023/02/08 08:14:02;;;;;;;54.38;22.80;;;-1.30;99.90;;;;;;4997669;28;20049;-72
2023/02/08 08:16:28;;;;;;;53.03;23.30;;;-1.30;99.90;;;;;;4991146;28;20041;-71
2023/02/08 08:18:54;;;;;;;50.17;22.27;;;-1.30;99.90;;;;;;4977383;28;20038;-70
2023/02/08 08:21:20;;;;;;;51.35;22.25;;;-1.30;99.90;;;;;;4978571;28;20394;-70
2023/02/08 08:23:45;;;;;;;52.60;21.52;;;-1.30;99.90;;;;;;4993286;28;20025;-69
2023/02/08 08:26:17;;;;;;;53.60;22.13;;;-1.20;99.90;;;;;;4996213;28;20034;-71
2023/02/08 08:28:45;;;;;;;53.25;22.25;;;-1.30;99.90;;;;;;4998656;28;20030;-71
2023/02/08 08:31:19;;;;;;;45.85;20.83;;;-1.20;99.90;;;;;;4994172;28;20041;-71
2023/02/08 08:33:45;;;;;;;51.97;21.92;;;-1.20;99.90;;;;;;4977804;28;20113;-70
2023/02/08 08:36:11;;;;;;;50.88;20.90;;;-1.20;99.90;;;;;;4985884;28;20533;-70
2023/02/08 08:38:40;;;;;;;50.70;22.48;;;-1.20;99.90;;;;;;4987920;28;20030;-74
2023/02/08 08:41:10;;;;;;;51.58;22.65;;;-1.20;99.90;;;;;;4998045;28;20096;-73
2023/02/08 08:43:36;;;;;;;51.08;22.15;;;-1.10;99.90;;;;;;4979495;28;20069;-73
2023/02/08 08:46:05;;;;;;;52.38;23.23;;;-1.10;99.90;;;;;;4996347;28;20046;-72
2023/02/08 08:48:30;;;;;;;56.50;22.77;;;-1.10;99.90;;;;;;4988123;28;20572;-72
2023/02/08 08:50:56;;;;;;;50.95;23.05;;;-1.20;99.90;;;;;;4993677;28;20038;-72
2023/02/08 08:53:22;;;;;;;46.90;20.45;;;-1.10;99.90;;;;;;4996249;28;20035;-72
2023/02/08 08:55:47;;;;;;;54.45;22.13;;;-1.10;99.90;;;;;;4975981;28;20179;-71
2023/02/08 08:58:13;;;;;;;55.70;23.60;;;-1.10;99.90;;;;;;4977090;28;20030;-71
2023/02/08 09:00:39;;;;;;;50.47;22.80;;;-1.00;99.90;;;;;;4974619;28;20392;-71
2023/02/08 09:03:05;;;;;;;53.22;23.58;;;-1.00;99.90;;;;;;4997481;28;20022;-72
2023/02/08 09:05:30;;;;;;;52.65;21.35;;;-1.00;99.90;;;;;;4975124;28;20033;-72
2023/02/08 09:07:56;;;;;;;57.33;22.70;;;-1.00;99.90;;;;;;4988058;28;20112;-73
2023/02/08 09:10:22;;;;;;;52.20;22.98;;;-0.90;99.90;;;;;;4972215;28;20536;-72
2023/02/08 09:12:48;;;;;;;50.72;21.80;;;-0.90;99.90;;;;;;4976064;28;20402;-72
2023/02/08 09:15:13;;;;;;;47.65;21.80;;;-0.80;99.90;;;;;;4975268;28;20134;-70
2023/02/08 09:17:39;;;;;;;51.88;21.88;;;-0.80;99.90;;;;;;4975754;28;20580;-72
2023/02/08 09:20:05;;;;;;;56.95;22.38;;;-0.80;99.90;;;;;;4973540;28;20031;-70
2023/02/08 09:22:31;;;;;;;54.67;24.20;;;-0.80;99.90;;;;;;4976070;28;20037;-71
2023/02/08 09:24:57;;;;;;;55.80;22.80;;;-0.80;99.90;;;;;;4976626;28;20034;-71
2023/02/08 09:27:23;;;;;;;58.45;22.52;;;-0.70;99.90;;;;;;4989551;28;20119;-70
2023/02/08 09:29:48;;;;;;;52.05;23.55;;;-0.70;99.90;;;;;;4971163;28;20539;-71
2023/02/08 09:32:14;;;;;;;52.17;21.92;;;-0.70;99.90;;;;;;4977571;28;20084;-70
2023/02/08 09:34:40;;;;;;;51.75;22.08;;;-0.70;99.90;;;;;;4990891;28;20490;-71
2023/02/08 09:37:06;;;;;;;51.92;21.88;;;-0.70;99.90;;;;;;4996060;28;20030;-71
2023/02/08 09:39:32;;;;;;;52.28;23.42;;;-0.60;99.90;;;;;;4975677;28;20575;-71
2023/02/08 09:42:25;;;;;;;52.67;22.55;;;-0.60;99.90;;;;;;4994127;28;20076;-71
2023/02/08 09:44:56;;;;;;;52.08;21.48;;;-0.60;99.90;;;;;;4973839;28;20022;-71
2023/02/08 09:47:30;;;;;;;49.35;20.77;;;-0.50;99.90;;;;;;4992638;28;20034;-72
2023/02/08 09:50:29;;;;;;;53.92;21.55;;;-0.50;99.90;;;;;;4978653;28;20038;-71
2023/02/08 09:53:15;;;;;;;54.08;22.67;;;-0.40;99.90;;;;;;4962169;28;20092;-71
2023/02/08 09:55:45;;;;;;;51.28;23.05;;;-0.40;99.90;;;;;;4961212;28;20026;-71
2023/02/08 09:58:32;;;;;;;53.08;20.98;;;-0.40;99.90;;;;;;4976742;28;20524;-72
2023/02/08 10:00:58;;;;;;;49.50;21.08;;;-0.40;99.90;;;;;;4973819;28;20033;-72
2023/02/08 10:03:37;;;;;;;51.90;23.10;;;-0.30;99.90;;;;;;4973914;28;20117;-72
2023/02/08 10:06:10;;;;;;;53.83;22.90;;;-0.30;99.90;;;;;;4957290;28;20026;-72
2023/02/08 10:08:37;;;;;;;53.63;23.17;;;-0.30;99.90;;;;;;4977355;28;20037;-71
2023/02/08 10:11:27;;;;;;;51.00;22.17;;;-0.30;99.90;;;;;;4978173;28;20108;-72
2023/02/08 10:14:12;;;;;;;55.33;22.50;;;-0.20;99.90;;;;;;4974577;28;20038;-71
2023/02/08 10:17:11;;;;;;;54.22;22.42;;;-0.20;99.90;;;;;;4976196;28;20031;-71
2023/02/08 10:19:58;;;;;;;52.35;22.50;;;-0.10;99.90;;;;;;4991412;28;20161;-72
2023/02/08 10:22:43;;;;;;;53.20;22.65;;;-0.10;99.90;;;;;;4962642;28;20030;-70
2023/02/08 10:25:17;;;;;;;46.90;21.77;;;-0.10;99.90;;;;;;4986013;28;20030;-71
2023/02/08 10:28:08;;;;;;;49.08;21.48;;;0.00;99.90;;;;;;4974152;28;20116;-71
2023/02/08 10:30:49;;;;;;;50.47;23.15;;;0.00;99.90;;;;;;4960894;28;20034;-71
2023/02/08 10:33:20;;;;;;;45.47;20.27;;;0.10;99.90;;;;;;4990835;28;20117;-72
2023/02/08 10:35:48;;;;;;;51.88;21.55;;;0.10;99.90;;;;;;4993852;28;20029;-70
2023/02/08 10:38:20;;;;;;;52.10;21.98;;;0.20;99.90;;;;;;4986231;28;20513;-70
2023/02/08 10:40:51;;;;;;;48.88;22.10;;;0.20;99.90;;;;;;4978118;28;20027;-71
2023/02/08 10:43:36;;;;;;;46.70;21.35;;;0.20;99.90;;;;;;4992277;28;20030;-70
2023/02/08 10:46:39;;;;;;;45.95;20.65;;;0.30;99.90;;;;;;4994502;28;20030;-72
2023/02/08 10:49:29;;;;;;;46.90;19.77;;;0.30;99.90;;;;;;4977985;28;20026;-71
2023/02/08 10:51:55;;;;;;;45.97;20.23;;;0.30;99.90;;;;;;4964195;28;20045;-72
2023/02/08 10:54:21;;;;;;;48.42;21.00;;;0.30;99.90;;;;;;4994808;28;20533;-72
2023/02/08 10:57:01;;;;;;;45.80;20.85;;;0.40;99.90;;;;;;5000600;28;20088;-71
2023/02/08 10:59:45;;;;;;;53.43;22.07;;;0.40;99.90;;;;;;4986833;28;20035;-72
2023/02/08 11:02:38;;;;;;;47.05;19.80;;;0.50;99.90;;;;;;4996753;28;20280;-72
2023/02/08 11:05:11;;;;;;;44.67;20.77;;;0.60;99.90;;;;;;4975588;28;20041;-72
2023/02/08 11:07:37;;;;;;;53.38;23.33;;;0.70;99.90;;;;;;4996593;28;20112;-72
2023/02/08 11:10:21;;;;;;;51.42;22.02;;;0.70;99.90;;;;;;4996072;28;20101;-71
2023/02/08 11:13:19;;;;;;;57.25;21.88;;;0.70;99.90;;;;;;4984635;28;20137;-71
2023/02/08 11:15:51;;;;;;;51.83;22.95;;;0.80;99.90;;;;;;4997231;28;20037;-71
2023/02/08 11:18:34;;;;;;;51.83;22.02;;;0.80;99.90;;;;;;4979723;28;20031;-72
2023/02/08 11:21:04;;;;;;;54.08;22.98;;;0.90;99.90;;;;;;5001454;28;20032;-72
2023/02/08 11:23:31;;;;;;;52.38;23.10;;;0.90;99.90;;;;;;4977818;28;20030;-72
2023/02/08 11:26:21;;;;;;;49.92;21.15;;;1.10;99.90;;;;;;4974878;28;20061;-72
2023/02/08 11:29:15;;;;;;;49.47;22.02;;;1.20;99.90;;;;;;4993951;28;20252;-72
2023/02/08 11:32:01;;;;;;;49.30;21.13;;;1.30;99.90;;;;;;4991081;28;20434;-73
2023/02/08 11:34:37;;;;;;;49.17;21.60;;;1.50;99.90;;;;;;4958246;28;20037;-73
2023/02/08 11:37:24;;;;;;;51.33;20.23;;;1.60;99.90;;;;;;4992593;28;20030;-73
2023/02/08 11:39:55;;;;;;;44.78;20.10;;;1.70;99.90;;;;;;4997192;28;20092;-72
2023/02/08 11:42:23;;;;;;;;;;;1.80;99.90;;;;;;4974531;28;20393;-73
2023/02/08 11:44:50;;;;;;;49.80;20.77;;;2.00;99.90;;;;;;4980092;28;20007;-73
2023/02/08 11:47:23;;;;;;;51.60;21.65;;;2.00;99.90;;;;;;4979767;28;20038;-72
2023/02/08 11:49:58;;;;;;;46.58;21.27;;;2.10;99.90;;;;;;4980770;28;20026;-72
2023/02/08 11:52:30;;;;;;;43.50;19.95;;;2.20;99.90;;;;;;4987893;28;20037;-73
2023/02/08 11:55:15;;;;;;;46.58;20.70;;;2.30;99.90;;;;;;4981483;28;20080;-72
2023/02/08 11:58:00;;;;;;;45.65;20.60;;;2.30;99.90;;;;;;4996455;28;20068;-72
2023/02/08 12:00:27;;;;;;;46.60;19.77;;;2.30;99.90;;;;;;4972227;28;20035;-72
2023/02/08 12:03:14;;;;;;;43.83;19.80;;;2.20;99.90;;;;;;4979316;28;20084;-71
2023/02/08 12:05:49;;;;;;;45.38;19.95;;;2.10;99.90;;;;;;4995726;28;20028;-71
2023/02/08 12:08:40;;;;;;;46.25;20.17;;;2.20;99.90;;;;;;4972535;28;20056;-73
2023/02/08 12:11:18;;;;;;;41.88;19.45;;;2.10;99.90;;;;;;4975072;28;20039;-72
2023/02/08 12:13:58;;;;;;;48.63;19.40;;;2.10;99.90;;;;;;4973857;28;20030;-71
2023/02/08 12:16:45;;;;;;;37.80;17.55;;;2.10;99.90;;;;;;4998935;28;20450;-70
2023/02/08 12:19:21;;;;;;;40.47;18.02;;;2.10;99.90;;;;;;4975773;28;20105;-71
2023/02/08 12:22:00;;;;;;;38.78;19.05;;;2.10;99.90;;;;;;4994212;28;20032;-72
2023/02/08 12:24:44;;;;;;;35.80;16.73;;;2.10;99.90;;;;;;4960770;28;20533;-72
2023/02/08 12:27:12;;;;;;;42.70;17.63;;;2.20;99.90;;;;;;4997340;28;20516;-72
2023/02/08 12:29:49;;;;;;;39.80;17.38;;;2.30;99.90;;;;;;4997265;28;20088;-72
2023/02/08 12:32:20;;;;;;;40.03;17.02;;;2.30;99.90;;;;;;4976337;28;20026;-72
2023/02/08 12:35:07;;;;;;;37.75;16.85;;;2.30;99.90;;;;;;4994458;28;20632;-72
2023/02/08 12:40:48;;;;;;;39.13;16.52;;;2.30;99.90;;;;;;4992880;28;20026;-73
2023/02/08 12:43:20;;;;;;;38.38;16.42;;;2.30;99.90;;;;;;4975542;28;20029;-72
2023/02/08 12:46:06;;;;;;;33.50;15.65;;;2.40;99.90;;;;;;4993051;28;20101;-72
2023/02/08 12:49:00;;;;;;;36.95;15.23;;;2.40;99.90;;;;;;4962445;28;20044;-73
2023/02/08 12:51:44;;;;;;;35.80;15.18;;;2.50;99.90;;;;;;4995942;28;20030;-71